sensor_id;sensor_type;location;lat;lon;timestamp;P1;durP1;ratioP1;P2;durP2;ratioP2
48897;SDS011;34713;50.038;20.000;2023-06-22T00:01:18;6.70;;;5.30;;
48897;SDS011;34713;50.038;20.000;2023-06-22T00:03:45;7.20;;;5.30;;
48897;SDS011;34713;50.038;20.000;2023-06-22T00:06:12;7.80;;;5.30;;
48897;SDS011;34713;50.038;20.000;2023-06-22T00:08:38;6.90;;;5.10;;
48897;SDS011;34713;50.038;20.000;2023-06-22T00:11:06;8.30;;;5.60;;
48897;SDS011;34713;50.038;20.000;2023-06-22T00:13:32;9.10;;;5.50;;
48897;SDS011;34713;50.038;20.000;2023-06-22T00:15:59;6.70;;;4.60;;
48897;SDS011;34713;50.038;20.000;2023-06-22T00:18:26;8.50;;;5.70;;
48897;SDS011;34713;50.038;20.000;2023-06-22T00:20:54;7.80;;;5.00;;
48897;SDS011;34713;50.038;20.000;2023-06-22T00:23:24;7.10;;;5.20;;
48897;SDS011;34713;50.038;20.000;2023-06-22T00:25:51;7.70;;;5.50;;
48897;SDS011;34713;50.038;20.000;2023-06-22T00:28:18;10.40;;;5.90;;
48897;SDS011;34713;50.038;20.000;2023-06-22T00:30:44;7.20;;;5.80;;
48897;SDS011;34713;50.038;20.000;2023-06-22T00:33:12;6.30;;;5.40;;
48897;SDS011;34713;50.038;20.000;2023-06-22T00:35:38;10.20;;;5.40;;
48897;SDS011;34713;50.038;20.000;2023-06-22T00:38:07;12.50;;;6.00;;
48897;SDS011;34713;50.038;20.000;2023-06-22T00:40:34;11.10;;;6.20;;
48897;SDS011;34713;50.038;20.000;2023-06-22T00:43:01;9.90;;;5.40;;
48897;SDS011;34713;50.038;20.000;2023-06-22T00:45:28;10.50;;;5.70;;
48897;SDS011;34713;50.038;20.000;2023-06-22T00:47:57;17.10;;;7.00;;
48897;SDS011;34713;50.038;20.000;2023-06-22T00:50:26;9.80;;;6.20;;
48897;SDS011;34713;50.038;20.000;2023-06-22T00:52:55;10.40;;;6.30;;
48897;SDS011;34713;50.038;20.000;2023-06-22T00:55:23;11.00;;;6.00;;
48897;SDS011;34713;50.038;20.000;2023-06-22T00:57:52;7.70;;;5.70;;
48897;SDS011;34713;50.038;20.000;2023-06-22T01:00:23;9.60;;;6.50;;
48897;SDS011;34713;50.038;20.000;2023-06-22T01:02:51;9.80;;;6.10;;
48897;SDS011;34713;50.038;20.000;2023-06-22T01:05:19;8.10;;;5.80;;
48897;SDS011;34713;50.038;20.000;2023-06-22T01:10:51;10.30;;;5.60;;
48897;SDS011;34713;50.038;20.000;2023-06-22T01:13:25;10.70;;;6.70;;
48897;SDS011;34713;50.038;20.000;2023-06-22T01:16:00;11.40;;;6.60;;
48897;SDS011;34713;50.038;20.000;2023-06-22T01:18:30;9.70;;;6.60;;
48897;SDS011;34713;50.038;20.000;2023-06-22T01:20:59;8.80;;;5.90;;
48897;SDS011;34713;50.038;20.000;2023-06-22T01:23:37;7.50;;;6.00;;
48897;SDS011;34713;50.038;20.000;2023-06-22T01:26:11;9.10;;;6.50;;
48897;SDS011;34713;50.038;20.000;2023-06-22T01:31:10;8.50;;;6.30;;
48897;SDS011;34713;50.038;20.000;2023-06-22T01:33:39;8.20;;;6.50;;
48897;SDS011;34713;50.038;20.000;2023-06-22T01:36:07;9.50;;;6.70;;
48897;SDS011;34713;50.038;20.000;2023-06-22T01:38:35;10.10;;;6.20;;
48897;SDS011;34713;50.038;20.000;2023-06-22T01:41:02;10.40;;;6.80;;
48897;SDS011;34713;50.038;20.000;2023-06-22T01:43:30;6.10;;;5.20;;
48897;SDS011;34713;50.038;20.000;2023-06-22T01:45:59;9.00;;;6.70;;
48897;SDS011;34713;50.038;20.000;2023-06-22T01:48:26;11.50;;;6.60;;
48897;SDS011;34713;50.038;20.000;2023-06-22T01:50:53;7.20;;;6.40;;
48897;SDS011;34713;50.038;20.000;2023-06-22T01:53:23;10.50;;;5.90;;
48897;SDS011;34713;50.038;20.000;2023-06-22T01:55:50;11.00;;;6.40;;
48897;SDS011;34713;50.038;20.000;2023-06-22T01:58:17;8.90;;;6.50;;
48897;SDS011;34713;50.038;20.000;2023-06-22T02:00:57;8.50;;;6.30;;
48897;SDS011;34713;50.038;20.000;2023-06-22T02:03:30;9.40;;;6.30;;
48897;SDS011;34713;50.038;20.000;2023-06-22T02:06:03;6.80;;;5.60;;
48897;SDS011;34713;50.038;20.000;2023-06-22T02:08:36;7.20;;;6.40;;
48897;SDS011;34713;50.038;20.000;2023-06-22T02:11:07;9.80;;;7.00;;
48897;SDS011;34713;50.038;20.000;2023-06-22T02:13:35;9.90;;;6.40;;
48897;SDS011;34713;50.038;20.000;2023-06-22T02:16:03;8.10;;;6.20;;
48897;SDS011;34713;50.038;20.000;2023-06-22T02:18:30;9.70;;;6.60;;
48897;SDS011;34713;50.038;20.000;2023-06-22T02:20:56;10.10;;;6.70;;
48897;SDS011;34713;50.038;20.000;2023-06-22T02:23:23;9.90;;;5.70;;
48897;SDS011;34713;50.038;20.000;2023-06-22T02:25:49;8.00;;;6.10;;
48897;SDS011;34713;50.038;20.000;2023-06-22T02:28:16;9.40;;;6.40;;
48897;SDS011;34713;50.038;20.000;2023-06-22T02:30:43;8.50;;;5.80;;
48897;SDS011;34713;50.038;20.000;2023-06-22T02:33:09;8.60;;;5.70;;
48897;SDS011;34713;50.038;20.000;2023-06-22T02:35:36;10.50;;;5.90;;
48897;SDS011;34713;50.038;20.000;2023-06-22T02:38:03;9.00;;;5.80;;
48897;SDS011;34713;50.038;20.000;2023-06-22T02:40:30;8.40;;;5.70;;
48897;SDS011;34713;50.038;20.000;2023-06-22T02:42:57;12.30;;;6.20;;
48897;SDS011;34713;50.038;20.000;2023-06-22T02:45:28;10.00;;;5.60;;
48897;SDS011;34713;50.038;20.000;2023-06-22T02:47:55;6.30;;;5.10;;
48897;SDS011;34713;50.038;20.000;2023-06-22T02:50:22;9.90;;;5.60;;
48897;SDS011;34713;50.038;20.000;2023-06-22T02:52:49;7.40;;;5.40;;
48897;SDS011;34713;50.038;20.000;2023-06-22T02:55:15;9.10;;;5.90;;
48897;SDS011;34713;50.038;20.000;2023-06-22T02:57:42;9.30;;;5.60;;
48897;SDS011;34713;50.038;20.000;2023-06-22T03:00:10;9.80;;;5.90;;
48897;SDS011;34713;50.038;20.000;2023-06-22T03:02:44;8.20;;;5.50;;
48897;SDS011;34713;50.038;20.000;2023-06-22T03:05:11;8.20;;;5.70;;
48897;SDS011;34713;50.038;20.000;2023-06-22T03:07:40;8.60;;;5.30;;
48897;SDS011;34713;50.038;20.000;2023-06-22T03:10:08;7.50;;;5.90;;
48897;SDS011;34713;50.038;20.000;2023-06-22T03:12:38;7.30;;;5.50;;
48897;SDS011;34713;50.038;20.000;2023-06-22T03:15:06;7.00;;;5.50;;
48897;SDS011;34713;50.038;20.000;2023-06-22T03:17:36;7.60;;;4.70;;
48897;SDS011;34713;50.038;20.000;2023-06-22T03:20:08;6.10;;;4.90;;
48897;SDS011;34713;50.038;20.000;2023-06-22T03:22:40;7.70;;;4.30;;
48897;SDS011;34713;50.038;20.000;2023-06-22T03:25:08;7.80;;;4.50;;
48897;SDS011;34713;50.038;20.000;2023-06-22T03:27:41;6.70;;;4.70;;
48897;SDS011;34713;50.038;20.000;2023-06-22T03:30:10;7.00;;;4.90;;
48897;SDS011;34713;50.038;20.000;2023-06-22T03:32:37;6.50;;;4.70;;
48897;SDS011;34713;50.038;20.000;2023-06-22T03:35:04;8.20;;;4.90;;
48897;SDS011;34713;50.038;20.000;2023-06-22T03:37:32;6.90;;;4.70;;
48897;SDS011;34713;50.038;20.000;2023-06-22T03:39:59;7.60;;;4.90;;
48897;SDS011;34713;50.038;20.000;2023-06-22T03:42:25;9.10;;;5.70;;
48897;SDS011;34713;50.038;20.000;2023-06-22T03:44:52;7.30;;;4.80;;
48897;SDS011;34713;50.038;20.000;2023-06-22T03:47:19;6.70;;;4.90;;
48897;SDS011;34713;50.038;20.000;2023-06-22T03:49:45;6.40;;;4.60;;
48897;SDS011;34713;50.038;20.000;2023-06-22T03:52:12;7.40;;;5.10;;
48897;SDS011;34713;50.038;20.000;2023-06-22T03:54:38;10.00;;;4.90;;
48897;SDS011;34713;50.038;20.000;2023-06-22T03:57:05;6.60;;;4.50;;
48897;SDS011;34713;50.038;20.000;2023-06-22T03:59:32;6.40;;;4.20;;
48897;SDS011;34713;50.038;20.000;2023-06-22T04:01:58;5.90;;;4.30;;
48897;SDS011;34713;50.038;20.000;2023-06-22T04:04:25;8.10;;;4.70;;
48897;SDS011;34713;50.038;20.000;2023-06-22T04:06:52;7.20;;;4.80;;
48897;SDS011;34713;50.038;20.000;2023-06-22T04:09:18;6.50;;;4.80;;
48897;SDS011;34713;50.038;20.000;2023-06-22T04:11:45;8.30;;;4.80;;
48897;SDS011;34713;50.038;20.000;2023-06-22T04:14:11;7.00;;;4.30;;
48897;SDS011;34713;50.038;20.000;2023-06-22T04:16:38;7.70;;;4.70;;
48897;SDS011;34713;50.038;20.000;2023-06-22T04:19:05;10.30;;;5.60;;
48897;SDS011;34713;50.038;20.000;2023-06-22T04:21:31;9.70;;;4.80;;
48897;SDS011;34713;50.038;20.000;2023-06-22T04:23:58;9.00;;;4.40;;
48897;SDS011;34713;50.038;20.000;2023-06-22T04:26:24;6.80;;;4.60;;
48897;SDS011;34713;50.038;20.000;2023-06-22T04:28:51;6.40;;;4.40;;
48897;SDS011;34713;50.038;20.000;2023-06-22T04:31:21;6.30;;;4.30;;
48897;SDS011;34713;50.038;20.000;2023-06-22T04:33:48;6.90;;;4.40;;
48897;SDS011;34713;50.038;20.000;2023-06-22T04:36:17;10.00;;;4.60;;
48897;SDS011;34713;50.038;20.000;2023-06-22T04:38:44;8.50;;;4.10;;
48897;SDS011;34713;50.038;20.000;2023-06-22T04:41:10;8.90;;;4.00;;
48897;SDS011;34713;50.038;20.000;2023-06-22T04:43:40;7.20;;;4.20;;
48897;SDS011;34713;50.038;20.000;2023-06-22T04:46:07;8.60;;;4.20;;
48897;SDS011;34713;50.038;20.000;2023-06-22T04:48:33;5.60;;;4.00;;
48897;SDS011;34713;50.038;20.000;2023-06-22T04:51:01;7.40;;;4.40;;
48897;SDS011;34713;50.038;20.000;2023-06-22T04:53:30;11.70;;;4.40;;
48897;SDS011;34713;50.038;20.000;2023-06-22T04:55:57;10.80;;;5.00;;
48897;SDS011;34713;50.038;20.000;2023-06-22T04:58:24;7.70;;;4.30;;
48897;SDS011;34713;50.038;20.000;2023-06-22T05:00:54;7.30;;;3.80;;
48897;SDS011;34713;50.038;20.000;2023-06-22T05:03:24;6.80;;;3.70;;
48897;SDS011;34713;50.038;20.000;2023-06-22T05:05:52;9.10;;;5.00;;
48897;SDS011;34713;50.038;20.000;2023-06-22T05:08:20;7.30;;;3.70;;
48897;SDS011;34713;50.038;20.000;2023-06-22T05:10:46;4.90;;;3.50;;
48897;SDS011;34713;50.038;20.000;2023-06-22T05:13:13;4.50;;;3.60;;
48897;SDS011;34713;50.038;20.000;2023-06-22T05:15:39;7.80;;;3.30;;
48897;SDS011;34713;50.038;20.000;2023-06-22T05:18:06;7.30;;;3.20;;
48897;SDS011;34713;50.038;20.000;2023-06-22T05:20:33;7.10;;;3.30;;
48897;SDS011;34713;50.038;20.000;2023-06-22T05:23:02;7.20;;;3.50;;
48897;SDS011;34713;50.038;20.000;2023-06-22T05:25:29;7.30;;;3.20;;
48897;SDS011;34713;50.038;20.000;2023-06-22T05:27:56;13.20;;;3.50;;
48897;SDS011;34713;50.038;20.000;2023-06-22T05:30:23;12.50;;;3.40;;
48897;SDS011;34713;50.038;20.000;2023-06-22T05:32:50;6.60;;;3.20;;
48897;SDS011;34713;50.038;20.000;2023-06-22T05:35:18;4.70;;;3.00;;
48897;SDS011;34713;50.038;20.000;2023-06-22T05:37:45;5.70;;;2.70;;
48897;SDS011;34713;50.038;20.000;2023-06-22T05:40:12;5.10;;;2.60;;
48897;SDS011;34713;50.038;20.000;2023-06-22T05:42:38;5.90;;;2.90;;
48897;SDS011;34713;50.038;20.000;2023-06-22T05:45:05;5.70;;;3.10;;
48897;SDS011;34713;50.038;20.000;2023-06-22T05:47:32;7.60;;;3.10;;
48897;SDS011;34713;50.038;20.000;2023-06-22T05:49:59;5.70;;;3.40;;
48897;SDS011;34713;50.038;20.000;2023-06-22T05:52:25;8.30;;;3.40;;
48897;SDS011;34713;50.038;20.000;2023-06-22T05:54:52;6.80;;;3.00;;
48897;SDS011;34713;50.038;20.000;2023-06-22T05:57:19;5.20;;;3.20;;
48897;SDS011;34713;50.038;20.000;2023-06-22T05:59:48;10.30;;;3.80;;
48897;SDS011;34713;50.038;20.000;2023-06-22T06:02:14;7.60;;;3.90;;
48897;SDS011;34713;50.038;20.000;2023-06-22T06:04:41;6.20;;;2.90;;
48897;SDS011;34713;50.038;20.000;2023-06-22T06:07:07;5.90;;;3.50;;
48897;SDS011;34713;50.038;20.000;2023-06-22T06:09:34;6.30;;;3.10;;
48897;SDS011;34713;50.038;20.000;2023-06-22T06:12:00;6.70;;;3.30;;
48897;SDS011;34713;50.038;20.000;2023-06-22T06:14:29;7.10;;;3.20;;
48897;SDS011;34713;50.038;20.000;2023-06-22T06:16:55;7.00;;;3.40;;
48897;SDS011;34713;50.038;20.000;2023-06-22T06:19:22;6.50;;;3.30;;
48897;SDS011;34713;50.038;20.000;2023-06-22T06:21:48;7.10;;;3.50;;
48897;SDS011;34713;50.038;20.000;2023-06-22T06:24:15;5.90;;;3.30;;
48897;SDS011;34713;50.038;20.000;2023-06-22T06:26:42;10.80;;;3.50;;
48897;SDS011;34713;50.038;20.000;2023-06-22T06:29:09;9.10;;;3.20;;
48897;SDS011;34713;50.038;20.000;2023-06-22T06:31:35;6.10;;;3.10;;
48897;SDS011;34713;50.038;20.000;2023-06-22T06:34:02;8.00;;;3.50;;
48897;SDS011;34713;50.038;20.000;2023-06-22T06:36:29;6.90;;;3.60;;
48897;SDS011;34713;50.038;20.000;2023-06-22T06:38:55;7.90;;;3.80;;
48897;SDS011;34713;50.038;20.000;2023-06-22T06:41:22;7.80;;;3.90;;
48897;SDS011;34713;50.038;20.000;2023-06-22T06:43:49;6.30;;;3.60;;
48897;SDS011;34713;50.038;20.000;2023-06-22T06:46:15;8.80;;;3.40;;
48897;SDS011;34713;50.038;20.000;2023-06-22T06:48:42;9.30;;;3.40;;
48897;SDS011;34713;50.038;20.000;2023-06-22T06:51:08;12.90;;;3.80;;
48897;SDS011;34713;50.038;20.000;2023-06-22T06:53:36;7.50;;;3.70;;
48897;SDS011;34713;50.038;20.000;2023-06-22T06:56:04;8.60;;;3.70;;
48897;SDS011;34713;50.038;20.000;2023-06-22T06:58:31;6.00;;;3.40;;
48897;SDS011;34713;50.038;20.000;2023-06-22T07:00:58;5.60;;;3.40;;
48897;SDS011;34713;50.038;20.000;2023-06-22T07:03:24;6.90;;;3.20;;
48897;SDS011;34713;50.038;20.000;2023-06-22T07:05:51;7.50;;;3.70;;
48897;SDS011;34713;50.038;20.000;2023-06-22T07:08:18;7.10;;;4.00;;
48897;SDS011;34713;50.038;20.000;2023-06-22T07:10:44;7.20;;;4.10;;
48897;SDS011;34713;50.038;20.000;2023-06-22T07:13:11;10.10;;;3.80;;
48897;SDS011;34713;50.038;20.000;2023-06-22T07:15:37;10.70;;;4.70;;
48897;SDS011;34713;50.038;20.000;2023-06-22T07:18:04;6.70;;;4.40;;
48897;SDS011;34713;50.038;20.000;2023-06-22T07:20:31;7.30;;;4.40;;
48897;SDS011;34713;50.038;20.000;2023-06-22T07:22:57;9.20;;;6.10;;
48897;SDS011;34713;50.038;20.000;2023-06-22T07:25:24;10.10;;;6.00;;
48897;SDS011;34713;50.038;20.000;2023-06-22T07:27:58;9.80;;;6.80;;
48897;SDS011;34713;50.038;20.000;2023-06-22T07:30:25;11.60;;;7.20;;
48897;SDS011;34713;50.038;20.000;2023-06-22T07:32:53;8.90;;;6.00;;
48897;SDS011;34713;50.038;20.000;2023-06-22T07:35:20;16.50;;;7.60;;
48897;SDS011;34713;50.038;20.000;2023-06-22T07:37:46;12.50;;;6.10;;
48897;SDS011;34713;50.038;20.000;2023-06-22T07:40:13;12.20;;;5.70;;
48897;SDS011;34713;50.038;20.000;2023-06-22T07:42:39;8.10;;;5.90;;
48897;SDS011;34713;50.038;20.000;2023-06-22T07:45:06;9.20;;;6.90;;
48897;SDS011;34713;50.038;20.000;2023-06-22T07:47:36;10.40;;;7.50;;
48897;SDS011;34713;50.038;20.000;2023-06-22T07:50:03;11.40;;;8.10;;
48897;SDS011;34713;50.038;20.000;2023-06-22T07:52:30;10.20;;;8.80;;
48897;SDS011;34713;50.038;20.000;2023-06-22T07:54:57;12.50;;;8.50;;
48897;SDS011;34713;50.038;20.000;2023-06-22T07:57:24;12.40;;;9.40;;
48897;SDS011;34713;50.038;20.000;2023-06-22T07:59:59;17.60;;;10.20;;
48897;SDS011;34713;50.038;20.000;2023-06-22T08:02:27;13.10;;;9.30;;
48897;SDS011;34713;50.038;20.000;2023-06-22T08:04:53;10.70;;;9.40;;
48897;SDS011;34713;50.038;20.000;2023-06-22T08:07:20;10.20;;;9.30;;
48897;SDS011;34713;50.038;20.000;2023-06-22T08:09:47;11.30;;;10.10;;
48897;SDS011;34713;50.038;20.000;2023-06-22T08:12:15;13.60;;;9.10;;
48897;SDS011;34713;50.038;20.000;2023-06-22T08:14:42;15.40;;;9.90;;
48897;SDS011;34713;50.038;20.000;2023-06-22T08:17:13;12.00;;;9.40;;
48897;SDS011;34713;50.038;20.000;2023-06-22T08:19:39;9.40;;;8.50;;
48897;SDS011;34713;50.038;20.000;2023-06-22T08:22:06;9.80;;;8.10;;
48897;SDS011;34713;50.038;20.000;2023-06-22T08:24:33;8.80;;;7.90;;
48897;SDS011;34713;50.038;20.000;2023-06-22T08:27:00;9.20;;;8.40;;
48897;SDS011;34713;50.038;20.000;2023-06-22T08:29:26;10.50;;;8.70;;
48897;SDS011;34713;50.038;20.000;2023-06-22T08:31:53;9.60;;;8.70;;
48897;SDS011;34713;50.038;20.000;2023-06-22T08:34:20;9.50;;;8.70;;
48897;SDS011;34713;50.038;20.000;2023-06-22T08:36:54;10.30;;;9.30;;
48897;SDS011;34713;50.038;20.000;2023-06-22T08:39:20;10.50;;;9.40;;
48897;SDS011;34713;50.038;20.000;2023-06-22T08:41:47;10.20;;;9.00;;
48897;SDS011;34713;50.038;20.000;2023-06-22T08:44:16;9.70;;;7.90;;
48897;SDS011;34713;50.038;20.000;2023-06-22T08:46:44;10.70;;;8.40;;
48897;SDS011;34713;50.038;20.000;2023-06-22T08:49:11;9.70;;;7.60;;
48897;SDS011;34713;50.038;20.000;2023-06-22T08:51:37;8.30;;;7.60;;
48897;SDS011;34713;50.038;20.000;2023-06-22T08:54:04;9.30;;;8.00;;
48897;SDS011;34713;50.038;20.000;2023-06-22T08:56:31;8.80;;;7.90;;
48897;SDS011;34713;50.038;20.000;2023-06-22T08:58:58;9.60;;;7.50;;
48897;SDS011;34713;50.038;20.000;2023-06-22T09:01:24;9.70;;;8.80;;
48897;SDS011;34713;50.038;20.000;2023-06-22T09:03:51;10.40;;;8.30;;
48897;SDS011;34713;50.038;20.000;2023-06-22T09:06:22;11.30;;;8.20;;
48897;SDS011;34713;50.038;20.000;2023-06-22T09:08:48;8.90;;;8.00;;
48897;SDS011;34713;50.038;20.000;2023-06-22T09:11:15;10.30;;;7.60;;
48897;SDS011;34713;50.038;20.000;2023-06-22T09:13:42;11.50;;;8.00;;
48897;SDS011;34713;50.038;20.000;2023-06-22T09:16:08;10.60;;;9.10;;
48897;SDS011;34713;50.038;20.000;2023-06-22T09:18:35;10.00;;;7.70;;
48897;SDS011;34713;50.038;20.000;2023-06-22T09:21:02;9.60;;;8.10;;
48897;SDS011;34713;50.038;20.000;2023-06-22T09:23:29;9.30;;;7.80;;
48897;SDS011;34713;50.038;20.000;2023-06-22T09:25:56;8.10;;;7.40;;
48897;SDS011;34713;50.038;20.000;2023-06-22T09:28:22;8.50;;;7.20;;
48897;SDS011;34713;50.038;20.000;2023-06-22T09:30:49;9.70;;;7.80;;
48897;SDS011;34713;50.038;20.000;2023-06-22T09:33:16;12.50;;;7.70;;
48897;SDS011;34713;50.038;20.000;2023-06-22T09:35:45;8.80;;;7.70;;
48897;SDS011;34713;50.038;20.000;2023-06-22T09:38:12;12.30;;;7.60;;
48897;SDS011;34713;50.038;20.000;2023-06-22T09:40:39;8.60;;;7.70;;
48897;SDS011;34713;50.038;20.000;2023-06-22T09:43:06;8.10;;;7.30;;
48897;SDS011;34713;50.038;20.000;2023-06-22T09:45:32;7.70;;;6.70;;
48897;SDS011;34713;50.038;20.000;2023-06-22T09:47:59;8.30;;;6.60;;
48897;SDS011;34713;50.038;20.000;2023-06-22T09:50:26;9.30;;;6.60;;
48897;SDS011;34713;50.038;20.000;2023-06-22T09:52:52;7.90;;;6.50;;
48897;SDS011;34713;50.038;20.000;2023-06-22T09:55:21;7.70;;;6.90;;
48897;SDS011;34713;50.038;20.000;2023-06-22T09:57:48;7.90;;;6.50;;
48897;SDS011;34713;50.038;20.000;2023-06-22T10:00:16;8.50;;;7.00;;
48897;SDS011;34713;50.038;20.000;2023-06-22T10:02:43;8.40;;;6.70;;
48897;SDS011;34713;50.038;20.000;2023-06-22T10:05:10;8.00;;;7.20;;
48897;SDS011;34713;50.038;20.000;2023-06-22T10:07:36;7.90;;;6.40;;
48897;SDS011;34713;50.038;20.000;2023-06-22T10:10:08;9.60;;;7.00;;
48897;SDS011;34713;50.038;20.000;2023-06-22T10:12:35;7.10;;;6.40;;
48897;SDS011;34713;50.038;20.000;2023-06-22T10:15:02;7.30;;;6.20;;
48897;SDS011;34713;50.038;20.000;2023-06-22T10:17:29;7.40;;;6.70;;
48897;SDS011;34713;50.038;20.000;2023-06-22T10:19:56;8.00;;;6.40;;
48897;SDS011;34713;50.038;20.000;2023-06-22T10:22:23;6.60;;;5.80;;
48897;SDS011;34713;50.038;20.000;2023-06-22T10:24:49;6.80;;;6.10;;
48897;SDS011;34713;50.038;20.000;2023-06-22T10:27:16;7.20;;;6.00;;
48897;SDS011;34713;50.038;20.000;2023-06-22T10:29:43;8.80;;;6.10;;
48897;SDS011;34713;50.038;20.000;2023-06-22T10:32:10;8.90;;;5.70;;
48897;SDS011;34713;50.038;20.000;2023-06-22T10:34:37;6.70;;;6.00;;
48897;SDS011;34713;50.038;20.000;2023-06-22T10:37:03;8.90;;;6.30;;
48897;SDS011;34713;50.038;20.000;2023-06-22T10:39:30;11.40;;;6.10;;
48897;SDS011;34713;50.038;20.000;2023-06-22T10:41:57;8.70;;;6.10;;
48897;SDS011;34713;50.038;20.000;2023-06-22T10:44:23;7.60;;;6.20;;
48897;SDS011;34713;50.038;20.000;2023-06-22T10:46:50;6.70;;;6.10;;
48897;SDS011;34713;50.038;20.000;2023-06-22T10:49:16;7.50;;;6.20;;
48897;SDS011;34713;50.038;20.000;2023-06-22T10:51:43;6.10;;;5.50;;
48897;SDS011;34713;50.038;20.000;2023-06-22T10:54:09;9.30;;;6.40;;
48897;SDS011;34713;50.038;20.000;2023-06-22T10:56:36;7.00;;;6.30;;
48897;SDS011;34713;50.038;20.000;2023-06-22T10:59:03;6.40;;;5.40;;
48897;SDS011;34713;50.038;20.000;2023-06-22T11:01:29;6.20;;;5.60;;
48897;SDS011;34713;50.038;20.000;2023-06-22T11:03:57;7.20;;;5.60;;
48897;SDS011;34713;50.038;20.000;2023-06-22T11:06:24;8.70;;;6.20;;
48897;SDS011;34713;50.038;20.000;2023-06-22T11:08:50;6.90;;;5.40;;
48897;SDS011;34713;50.038;20.000;2023-06-22T11:11:17;6.50;;;5.80;;
48897;SDS011;34713;50.038;20.000;2023-06-22T11:13:44;5.90;;;5.40;;
48897;SDS011;34713;50.038;20.000;2023-06-22T11:16:11;6.90;;;5.90;;
48897;SDS011;34713;50.038;20.000;2023-06-22T11:18:37;6.90;;;6.00;;
48897;SDS011;34713;50.038;20.000;2023-06-22T11:21:04;7.60;;;5.70;;
48897;SDS011;34713;50.038;20.000;2023-06-22T11:23:31;6.20;;;5.60;;
48897;SDS011;34713;50.038;20.000;2023-06-22T11:25:58;6.10;;;5.50;;
48897;SDS011;34713;50.038;20.000;2023-06-22T11:28:25;7.60;;;6.30;;
48897;SDS011;34713;50.038;20.000;2023-06-22T11:30:51;6.00;;;5.40;;
48897;SDS011;34713;50.038;20.000;2023-06-22T11:33:18;6.50;;;5.80;;
48897;SDS011;34713;50.038;20.000;2023-06-22T11:35:44;8.20;;;5.90;;
48897;SDS011;34713;50.038;20.000;2023-06-22T11:38:11;6.20;;;5.60;;
48897;SDS011;34713;50.038;20.000;2023-06-22T11:40:38;6.30;;;5.70;;
48897;SDS011;34713;50.038;20.000;2023-06-22T11:43:04;6.20;;;5.60;;
48897;SDS011;34713;50.038;20.000;2023-06-22T11:45:31;6.50;;;5.60;;
48897;SDS011;34713;50.038;20.000;2023-06-22T11:47:58;6.70;;;5.60;;
48897;SDS011;34713;50.038;20.000;2023-06-22T11:50:24;6.60;;;5.60;;
48897;SDS011;34713;50.038;20.000;2023-06-22T11:52:51;6.50;;;5.20;;
48897;SDS011;34713;50.038;20.000;2023-06-22T11:55:19;6.30;;;5.60;;
48897;SDS011;34713;50.038;20.000;2023-06-22T11:57:53;6.00;;;5.50;;
48897;SDS011;34713;50.038;20.000;2023-06-22T12:00:22;6.50;;;5.50;;
48897;SDS011;34713;50.038;20.000;2023-06-22T12:02:50;7.60;;;5.70;;
48897;SDS011;34713;50.038;20.000;2023-06-22T12:05:20;7.30;;;5.50;;
48897;SDS011;34713;50.038;20.000;2023-06-22T12:07:52;5.60;;;5.00;;
48897;SDS011;34713;50.038;20.000;2023-06-22T12:10:20;9.30;;;6.00;;
48897;SDS011;34713;50.038;20.000;2023-06-22T12:12:51;8.20;;;5.70;;
48897;SDS011;34713;50.038;20.000;2023-06-22T12:15:18;6.70;;;5.60;;
48897;SDS011;34713;50.038;20.000;2023-06-22T12:17:45;5.80;;;5.30;;
48897;SDS011;34713;50.038;20.000;2023-06-22T12:20:12;9.20;;;5.40;;
48897;SDS011;34713;50.038;20.000;2023-06-22T12:22:38;7.20;;;6.00;;
48897;SDS011;34713;50.038;20.000;2023-06-22T12:25:05;10.00;;;5.80;;
48897;SDS011;34713;50.038;20.000;2023-06-22T12:27:32;6.00;;;5.50;;
48897;SDS011;34713;50.038;20.000;2023-06-22T12:29:59;6.90;;;6.20;;
48897;SDS011;34713;50.038;20.000;2023-06-22T12:32:26;5.90;;;5.40;;
48897;SDS011;34713;50.038;20.000;2023-06-22T12:34:52;6.90;;;5.30;;
48897;SDS011;34713;50.038;20.000;2023-06-22T12:37:19;6.30;;;5.00;;
48897;SDS011;34713;50.038;20.000;2023-06-22T12:39:46;7.10;;;5.20;;
48897;SDS011;34713;50.038;20.000;2023-06-22T12:42:12;6.10;;;5.00;;
48897;SDS011;34713;50.038;20.000;2023-06-22T12:44:39;5.90;;;4.80;;
48897;SDS011;34713;50.038;20.000;2023-06-22T12:47:06;7.10;;;4.70;;
48897;SDS011;34713;50.038;20.000;2023-06-22T12:49:35;5.80;;;5.20;;
48897;SDS011;34713;50.038;20.000;2023-06-22T12:52:02;7.70;;;5.30;;
48897;SDS011;34713;50.038;20.000;2023-06-22T12:54:29;6.30;;;5.00;;
48897;SDS011;34713;50.038;20.000;2023-06-22T12:56:56;5.80;;;5.20;;
48897;SDS011;34713;50.038;20.000;2023-06-22T12:59:22;7.30;;;4.90;;
48897;SDS011;34713;50.038;20.000;2023-06-22T13:01:49;7.90;;;4.90;;
48897;SDS011;34713;50.038;20.000;2023-06-22T13:04:16;8.20;;;4.50;;
48897;SDS011;34713;50.038;20.000;2023-06-22T13:06:44;6.00;;;5.30;;
48897;SDS011;34713;50.038;20.000;2023-06-22T13:09:14;6.30;;;4.90;;
48897;SDS011;34713;50.038;20.000;2023-06-22T13:11:42;8.60;;;5.40;;
48897;SDS011;34713;50.038;20.000;2023-06-22T13:14:09;7.70;;;5.10;;
48897;SDS011;34713;50.038;20.000;2023-06-22T13:16:35;6.10;;;4.80;;
48897;SDS011;34713;50.038;20.000;2023-06-22T13:19:02;5.40;;;4.90;;
48897;SDS011;34713;50.038;20.000;2023-06-22T13:21:30;6.10;;;4.70;;
48897;SDS011;34713;50.038;20.000;2023-06-22T13:23:56;6.20;;;5.00;;
48897;SDS011;34713;50.038;20.000;2023-06-22T13:26:24;9.50;;;4.60;;
48897;SDS011;34713;50.038;20.000;2023-06-22T13:28:51;6.80;;;4.80;;
48897;SDS011;34713;50.038;20.000;2023-06-22T13:31:17;7.50;;;5.20;;
48897;SDS011;34713;50.038;20.000;2023-06-22T13:33:44;10.50;;;5.00;;
48897;SDS011;34713;50.038;20.000;2023-06-22T13:36:14;8.00;;;4.80;;
48897;SDS011;34713;50.038;20.000;2023-06-22T13:38:40;10.10;;;4.90;;
48897;SDS011;34713;50.038;20.000;2023-06-22T13:41:07;6.00;;;4.70;;
48897;SDS011;34713;50.038;20.000;2023-06-22T13:43:33;12.10;;;5.10;;
48897;SDS011;34713;50.038;20.000;2023-06-22T13:46:00;7.30;;;4.90;;
48897;SDS011;34713;50.038;20.000;2023-06-22T13:48:27;7.30;;;4.50;;
48897;SDS011;34713;50.038;20.000;2023-06-22T13:50:54;6.70;;;5.20;;
48897;SDS011;34713;50.038;20.000;2023-06-22T13:53:21;6.80;;;4.50;;
48897;SDS011;34713;50.038;20.000;2023-06-22T13:55:48;5.70;;;4.70;;
48897;SDS011;34713;50.038;20.000;2023-06-22T13:58:14;5.80;;;4.50;;
48897;SDS011;34713;50.038;20.000;2023-06-22T14:00:41;6.70;;;4.90;;
48897;SDS011;34713;50.038;20.000;2023-06-22T14:03:07;5.80;;;5.00;;
48897;SDS011;34713;50.038;20.000;2023-06-22T14:05:34;7.10;;;5.30;;
48897;SDS011;34713;50.038;20.000;2023-06-22T14:08:00;7.20;;;4.80;;
48897;SDS011;34713;50.038;20.000;2023-06-22T14:10:27;9.30;;;4.50;;
48897;SDS011;34713;50.038;20.000;2023-06-22T14:12:54;7.10;;;4.60;;
48897;SDS011;34713;50.038;20.000;2023-06-22T14:15:21;9.60;;;4.80;;
48897;SDS011;34713;50.038;20.000;2023-06-22T14:17:48;6.60;;;4.70;;
48897;SDS011;34713;50.038;20.000;2023-06-22T14:20:14;8.40;;;4.30;;
48897;SDS011;34713;50.038;20.000;2023-06-22T14:22:41;6.50;;;4.60;;
48897;SDS011;34713;50.038;20.000;2023-06-22T14:25:08;7.90;;;4.80;;
48897;SDS011;34713;50.038;20.000;2023-06-22T14:27:35;6.20;;;4.80;;
48897;SDS011;34713;50.038;20.000;2023-06-22T14:30:02;6.50;;;4.30;;
48897;SDS011;34713;50.038;20.000;2023-06-22T14:32:29;8.80;;;4.80;;
48897;SDS011;34713;50.038;20.000;2023-06-22T14:34:58;10.70;;;5.70;;
48897;SDS011;34713;50.038;20.000;2023-06-22T14:37:25;7.70;;;4.90;;